sensor_id;sensor_type;location;lat;lon;timestamp;P1;durP1;ratioP1;P2;durP2;ratioP2
2850;SDS011;1433;49.976;8.342;2023-02-01T00:00:24;4.40;;;3.17;;
2850;SDS011;1433;49.976;8.342;2023-02-01T00:02:50;3.93;;;3.00;;
2850;SDS011;1433;49.976;8.342;2023-02-01T00:05:17;4.07;;;3.70;;
2850;SDS011;1433;49.976;8.342;2023-02-01T00:07:46;4.23;;;3.83;;
2850;SDS011;1433;49.976;8.342;2023-02-01T00:10:13;4.37;;;4.07;;
2850;SDS011;1433;49.976;8.342;2023-02-01T00:12:40;4.60;;;4.20;;
2850;SDS011;1433;49.976;8.342;2023-02-01T00:15:06;3.93;;;3.53;;
2850;SDS011;1433;49.976;8.342;2023-02-01T00:17:34;4.00;;;3.70;;
2850;SDS011;1433;49.976;8.342;2023-02-01T00:20:00;4.37;;;3.97;;
2850;SDS011;1433;49.976;8.342;2023-02-01T00:22:26;5.27;;;4.87;;
2850;SDS011;1433;49.976;8.342;2023-02-01T00:24:53;5.87;;;5.30;;
2850;SDS011;1433;49.976;8.342;2023-02-01T00:27:19;5.57;;;4.17;;
2850;SDS011;1433;49.976;8.342;2023-02-01T00:29:46;4.67;;;4.27;;
2850;SDS011;1433;49.976;8.342;2023-02-01T00:32:13;5.53;;;5.03;;
2850;SDS011;1433;49.976;8.342;2023-02-01T00:34:39;5.37;;;4.87;;
2850;SDS011;1433;49.976;8.342;2023-02-01T00:37:06;8.83;;;4.63;;
2850;SDS011;1433;49.976;8.342;2023-02-01T00:39:33;5.53;;;5.03;;
2850;SDS011;1433;49.976;8.342;2023-02-01T00:42:00;6.57;;;5.17;;
2850;SDS011;1433;49.976;8.342;2023-02-01T00:44:27;5.33;;;4.80;;
2850;SDS011;1433;49.976;8.342;2023-02-01T00:46:56;5.40;;;4.70;;
2850;SDS011;1433;49.976;8.342;2023-02-01T00:49:22;5.13;;;4.73;;
2850;SDS011;1433;49.976;8.342;2023-02-01T00:51:48;5.40;;;4.90;;
2850;SDS011;1433;49.976;8.342;2023-02-01T00:54:14;4.90;;;4.50;;
2850;SDS011;1433;49.976;8.342;2023-02-01T00:56:41;5.37;;;4.87;;
2850;SDS011;1433;49.976;8.342;2023-02-01T00:59:10;5.63;;;5.13;;
2850;SDS011;1433;49.976;8.342;2023-02-01T01:01:38;5.13;;;4.73;;
2850;SDS011;1433;49.976;8.342;2023-02-01T01:04:04;6.57;;;5.13;;
2850;SDS011;1433;49.976;8.342;2023-02-01T01:06:32;6.53;;;5.30;;
2850;SDS011;1433;49.976;8.342;2023-02-01T01:09:00;5.40;;;4.90;;
2850;SDS011;1433;49.976;8.342;2023-02-01T01:11:34;5.77;;;5.27;;
2850;SDS011;1433;49.976;8.342;2023-02-01T01:14:04;6.40;;;5.80;;
2850;SDS011;1433;49.976;8.342;2023-02-01T01:16:34;6.87;;;6.27;;
2850;SDS011;1433;49.976;8.342;2023-02-01T01:19:01;8.27;;;7.43;;
2850;SDS011;1433;49.976;8.342;2023-02-01T01:21:28;9.40;;;6.53;;
2850;SDS011;1433;49.976;8.342;2023-02-01T01:23:56;6.33;;;5.73;;
2850;SDS011;1433;49.976;8.342;2023-02-01T01:26:23;6.50;;;5.93;;
2850;SDS011;1433;49.976;8.342;2023-02-01T01:28:54;10.07;;;6.93;;
2850;SDS011;1433;49.976;8.342;2023-02-01T01:31:24;7.10;;;6.40;;
2850;SDS011;1433;49.976;8.342;2023-02-01T01:33:51;6.97;;;6.30;;
2850;SDS011;1433;49.976;8.342;2023-02-01T01:36:20;14.30;;;8.13;;
2850;SDS011;1433;49.976;8.342;2023-02-01T01:38:47;6.87;;;6.27;;
2850;SDS011;1433;49.976;8.342;2023-02-01T01:41:16;7.27;;;6.67;;
2850;SDS011;1433;49.976;8.342;2023-02-01T01:46:23;7.27;;;6.67;;
2850;SDS011;1433;49.976;8.342;2023-02-01T01:48:55;9.83;;;7.33;;
2850;SDS011;1433;49.976;8.342;2023-02-01T01:51:25;12.40;;;8.00;;
2850;SDS011;1433;49.976;8.342;2023-02-01T01:56:49;8.80;;;7.07;;
2850;SDS011;1433;49.976;8.342;2023-02-01T01:59:19;8.70;;;7.90;;
2850;SDS011;1433;49.976;8.342;2023-02-01T02:01:48;13.20;;;7.40;;
2850;SDS011;1433;49.976;8.342;2023-02-01T02:04:14;8.87;;;8.07;;
2850;SDS011;1433;49.976;8.342;2023-02-01T02:07:04;10.53;;;8.03;;
2850;SDS011;1433;49.976;8.342;2023-02-01T02:09:25;12.30;;;8.03;;
2850;SDS011;1433;49.976;8.342;2023-02-01T02:11:51;11.30;;;9.10;;
2850;SDS011;1433;49.976;8.342;2023-02-01T02:14:19;13.90;;;9.80;;
2850;SDS011;1433;49.976;8.342;2023-02-01T02:25:38;10.83;;;9.33;;
2850;SDS011;1433;49.976;8.342;2023-02-01T02:39:30;13.73;;;9.77;;
2850;SDS011;1433;49.976;8.342;2023-02-01T02:42:14;13.33;;;9.63;;
2850;SDS011;1433;49.976;8.342;2023-02-01T02:46:09;9.80;;;8.70;;
2850;SDS011;1433;49.976;8.342;2023-02-01T02:48:28;11.70;;;8.97;;
2850;SDS011;1433;49.976;8.342;2023-02-01T02:51:18;11.33;;;9.10;;
2850;SDS011;1433;49.976;8.342;2023-02-01T02:54:17;9.50;;;7.87;;
2850;SDS011;1433;49.976;8.342;2023-02-01T03:00:12;11.83;;;8.73;;
2850;SDS011;1433;49.976;8.342;2023-02-01T03:03:00;10.30;;;8.90;;
2850;SDS011;1433;49.976;8.342;2023-02-01T03:05:46;14.00;;;10.10;;
2850;SDS011;1433;49.976;8.342;2023-02-01T03:10:53;14.80;;;9.13;;
2850;SDS011;1433;49.976;8.342;2023-02-01T03:13:44;9.17;;;8.23;;
2850;SDS011;1433;49.976;8.342;2023-02-01T03:16:41;9.63;;;8.37;;
2850;SDS011;1433;49.976;8.342;2023-02-01T03:22:01;11.27;;;9.07;;
2850;SDS011;1433;49.976;8.342;2023-02-01T03:24:37;9.37;;;7.93;;
2850;SDS011;1433;49.976;8.342;2023-02-01T03:30:08;8.83;;;7.93;;
2850;SDS011;1433;49.976;8.342;2023-02-01T03:32:52;11.33;;;10.20;;
2850;SDS011;1433;49.976;8.342;2023-02-01T03:35:32;11.67;;;9.23;;
2850;SDS011;1433;49.976;8.342;2023-02-01T03:41:42;8.87;;;7.37;;
2850;SDS011;1433;49.976;8.342;2023-02-01T03:47:05;9.03;;;8.13;;
2850;SDS011;1433;49.976;8.342;2023-02-01T03:49:37;8.67;;;7.30;;
2850;SDS011;1433;49.976;8.342;2023-02-01T03:52:11;8.87;;;7.63;;
2850;SDS011;1433;49.976;8.342;2023-02-01T03:54:43;8.50;;;7.70;;
2850;SDS011;1433;49.976;8.342;2023-02-01T03:57:12;11.20;;;8.70;;
2850;SDS011;1433;49.976;8.342;2023-02-01T03:59:41;11.13;;;7.17;;
2850;SDS011;1433;49.976;8.342;2023-02-01T04:02:12;7.50;;;6.90;;
2850;SDS011;1433;49.976;8.342;2023-02-01T04:04:40;8.83;;;7.90;;
2850;SDS011;1433;49.976;8.342;2023-02-01T04:07:08;8.20;;;7.40;;
2850;SDS011;1433;49.976;8.342;2023-02-01T04:09:35;7.40;;;6.40;;
2850;SDS011;1433;49.976;8.342;2023-02-01T04:12:01;8.00;;;7.27;;
2850;SDS011;1433;49.976;8.342;2023-02-01T04:14:28;9.40;;;7.73;;
2850;SDS011;1433;49.976;8.342;2023-02-01T04:16:54;7.63;;;6.90;;
2850;SDS011;1433;49.976;8.342;2023-02-01T04:19:20;6.43;;;5.83;;
2850;SDS011;1433;49.976;8.342;2023-02-01T04:21:46;7.27;;;6.50;;
2850;SDS011;1433;49.976;8.342;2023-02-01T04:24:13;7.33;;;6.20;;
2850;SDS011;1433;49.976;8.342;2023-02-01T04:26:39;7.47;;;6.40;;
2850;SDS011;1433;49.976;8.342;2023-02-01T04:29:05;7.17;;;6.10;;
2850;SDS011;1433;49.976;8.342;2023-02-01T04:31:31;6.00;;;5.33;;
2850;SDS011;1433;49.976;8.342;2023-02-01T04:34:01;6.20;;;5.60;;
2850;SDS011;1433;49.976;8.342;2023-02-01T04:36:27;8.57;;;5.80;;
2850;SDS011;1433;49.976;8.342;2023-02-01T04:38:55;7.47;;;5.80;;
2850;SDS011;1433;49.976;8.342;2023-02-01T04:41:22;7.00;;;5.97;;
2850;SDS011;1433;49.976;8.342;2023-02-01T04:43:49;5.90;;;4.80;;
2850;SDS011;1433;49.976;8.342;2023-02-01T04:46:17;5.03;;;4.53;;
2850;SDS011;1433;49.976;8.342;2023-02-01T04:48:44;6.77;;;4.83;;
2850;SDS011;1433;49.976;8.342;2023-02-01T04:51:10;8.40;;;5.60;;
2850;SDS011;1433;49.976;8.342;2023-02-01T04:53:37;10.33;;;4.23;;
2850;SDS011;1433;49.976;8.342;2023-02-01T04:56:03;7.50;;;5.40;;
2850;SDS011;1433;49.976;8.342;2023-02-01T04:58:30;4.97;;;3.93;;
2850;SDS011;1433;49.976;8.342;2023-02-01T05:00:56;6.53;;;4.47;;
2850;SDS011;1433;49.976;8.342;2023-02-01T05:03:23;5.73;;;4.33;;
2850;SDS011;1433;49.976;8.342;2023-02-01T05:05:49;5.17;;;4.70;;
2850;SDS011;1433;49.976;8.342;2023-02-01T05:08:15;4.60;;;3.90;;
2850;SDS011;1433;49.976;8.342;2023-02-01T05:10:42;10.17;;;4.60;;
2850;SDS011;1433;49.976;8.342;2023-02-01T05:13:08;6.03;;;4.67;;
2850;SDS011;1433;49.976;8.342;2023-02-01T05:15:54;6.07;;;4.53;;
2850;SDS011;1433;49.976;8.342;2023-02-01T05:18:21;6.53;;;4.40;;
2850;SDS011;1433;49.976;8.342;2023-02-01T05:20:47;14.73;;;5.73;;
2850;SDS011;1433;49.976;8.342;2023-02-01T05:23:13;4.27;;;3.80;;
2850;SDS011;1433;49.976;8.342;2023-02-01T05:25:39;10.97;;;4.57;;
2850;SDS011;1433;49.976;8.342;2023-02-01T05:28:06;8.43;;;4.90;;
2850;SDS011;1433;49.976;8.342;2023-02-01T05:30:32;5.23;;;3.40;;
2850;SDS011;1433;49.976;8.342;2023-02-01T05:33:00;11.63;;;4.07;;
2850;SDS011;1433;49.976;8.342;2023-02-01T05:35:28;8.73;;;4.10;;
2850;SDS011;1433;49.976;8.342;2023-02-01T05:37:54;6.87;;;4.67;;
2850;SDS011;1433;49.976;8.342;2023-02-01T05:40:20;9.43;;;4.00;;
2850;SDS011;1433;49.976;8.342;2023-02-01T05:42:47;7.70;;;4.53;;
2850;SDS011;1433;49.976;8.342;2023-02-01T05:45:14;5.93;;;4.70;;
2850;SDS011;1433;49.976;8.342;2023-02-01T05:47:40;7.80;;;4.80;;
2850;SDS011;1433;49.976;8.342;2023-02-01T05:50:06;6.43;;;3.80;;
2850;SDS011;1433;49.976;8.342;2023-02-01T05:52:33;7.27;;;4.43;;
2850;SDS011;1433;49.976;8.342;2023-02-01T05:55:00;5.20;;;3.27;;
2850;SDS011;1433;49.976;8.342;2023-02-01T05:57:26;7.03;;;2.87;;
2850;SDS011;1433;49.976;8.342;2023-02-01T05:59:52;7.07;;;2.87;;
2850;SDS011;1433;49.976;8.342;2023-02-01T06:02:18;8.40;;;2.63;;
2850;SDS011;1433;49.976;8.342;2023-02-01T06:04:46;3.43;;;2.83;;
2850;SDS011;1433;49.976;8.342;2023-02-01T06:07:12;6.13;;;2.70;;
2850;SDS011;1433;49.976;8.342;2023-02-01T06:09:38;4.10;;;2.60;;
2850;SDS011;1433;49.976;8.342;2023-02-01T06:12:05;5.13;;;3.57;;
2850;SDS011;1433;49.976;8.342;2023-02-01T06:14:32;5.77;;;3.13;;
2850;SDS011;1433;49.976;8.342;2023-02-01T06:16:58;4.90;;;3.20;;
2850;SDS011;1433;49.976;8.342;2023-02-01T06:19:24;7.90;;;3.47;;
2850;SDS011;1433;49.976;8.342;2023-02-01T06:21:51;6.60;;;3.60;;
2850;SDS011;1433;49.976;8.342;2023-02-01T06:24:17;5.20;;;3.67;;
2850;SDS011;1433;49.976;8.342;2023-02-01T06:26:43;6.00;;;3.53;;
2850;SDS011;1433;49.976;8.342;2023-02-01T06:29:11;3.93;;;2.77;;
2850;SDS011;1433;49.976;8.342;2023-02-01T06:31:38;9.20;;;4.40;;
2850;SDS011;1433;49.976;8.342;2023-02-01T06:34:05;10.83;;;4.37;;
2850;SDS011;1433;49.976;8.342;2023-02-01T06:36:32;5.40;;;3.30;;
2850;SDS011;1433;49.976;8.342;2023-02-01T06:38:58;5.80;;;3.97;;
2850;SDS011;1433;49.976;8.342;2023-02-01T06:41:25;9.33;;;4.40;;
2850;SDS011;1433;49.976;8.342;2023-02-01T06:43:52;14.40;;;5.47;;
2850;SDS011;1433;49.976;8.342;2023-02-01T06:46:18;16.10;;;5.70;;
2850;SDS011;1433;49.976;8.342;2023-02-01T06:48:45;9.67;;;5.00;;
2850;SDS011;1433;49.976;8.342;2023-02-01T06:51:18;16.43;;;5.43;;
2850;SDS011;1433;49.976;8.342;2023-02-01T06:53:51;13.43;;;5.27;;
2850;SDS011;1433;49.976;8.342;2023-02-01T06:56:17;11.23;;;4.30;;
2850;SDS011;1433;49.976;8.342;2023-02-01T06:58:44;9.97;;;4.93;;
2850;SDS011;1433;49.976;8.342;2023-02-01T07:01:10;15.23;;;6.27;;
2850;SDS011;1433;49.976;8.342;2023-02-01T07:03:37;4.53;;;3.50;;
2850;SDS011;1433;49.976;8.342;2023-02-01T07:06:05;9.07;;;4.87;;
2850;SDS011;1433;49.976;8.342;2023-02-01T07:08:34;5.80;;;3.50;;
2850;SDS011;1433;49.976;8.342;2023-02-01T07:11:04;7.37;;;3.90;;
2850;SDS011;1433;49.976;8.342;2023-02-01T07:13:33;12.10;;;4.90;;
2850;SDS011;1433;49.976;8.342;2023-02-01T07:16:03;7.83;;;4.27;;
2850;SDS011;1433;49.976;8.342;2023-02-01T07:18:32;7.50;;;3.90;;
2850;SDS011;1433;49.976;8.342;2023-02-01T07:20:59;9.23;;;4.47;;
2850;SDS011;1433;49.976;8.342;2023-02-01T07:23:26;10.53;;;4.77;;
2850;SDS011;1433;49.976;8.342;2023-02-01T07:25:53;14.43;;;4.73;;
2850;SDS011;1433;49.976;8.342;2023-02-01T07:28:22;7.67;;;4.40;;
2850;SDS011;1433;49.976;8.342;2023-02-01T07:30:49;10.07;;;5.27;;
2850;SDS011;1433;49.976;8.342;2023-02-01T07:33:18;12.60;;;4.53;;
2850;SDS011;1433;49.976;8.342;2023-02-01T07:35:47;9.43;;;3.90;;
2850;SDS011;1433;49.976;8.342;2023-02-01T07:38:14;9.37;;;4.93;;
2850;SDS011;1433;49.976;8.342;2023-02-01T07:40:41;9.50;;;5.27;;
2850;SDS011;1433;49.976;8.342;2023-02-01T07:43:08;13.10;;;4.93;;
2850;SDS011;1433;49.976;8.342;2023-02-01T07:45:35;9.20;;;5.20;;
2850;SDS011;1433;49.976;8.342;2023-02-01T07:48:02;8.73;;;4.70;;
2850;SDS011;1433;49.976;8.342;2023-02-01T07:50:30;11.43;;;5.60;;
2850;SDS011;1433;49.976;8.342;2023-02-01T07:53:01;12.07;;;5.93;;
2850;SDS011;1433;49.976;8.342;2023-02-01T07:55:26;7.77;;;4.33;;
2850;SDS011;1433;49.976;8.342;2023-02-01T07:57:56;9.60;;;4.63;;
2850;SDS011;1433;49.976;8.342;2023-02-01T08:00:25;7.83;;;5.00;;
2850;SDS011;1433;49.976;8.342;2023-02-01T08:03:10;7.30;;;4.90;;
2850;SDS011;1433;49.976;8.342;2023-02-01T08:05:36;8.43;;;4.33;;
2850;SDS011;1433;49.976;8.342;2023-02-01T08:08:03;20.23;;;6.03;;
2850;SDS011;1433;49.976;8.342;2023-02-01T08:10:30;12.43;;;5.13;;
2850;SDS011;1433;49.976;8.342;2023-02-01T08:12:59;18.37;;;4.77;;
2850;SDS011;1433;49.976;8.342;2023-02-01T08:15:28;15.27;;;6.70;;
2850;SDS011;1433;49.976;8.342;2023-02-01T08:17:55;12.20;;;5.00;;
2850;SDS011;1433;49.976;8.342;2023-02-01T08:20:23;15.77;;;5.40;;
2850;SDS011;1433;49.976;8.342;2023-02-01T08:22:50;13.90;;;4.97;;
2850;SDS011;1433;49.976;8.342;2023-02-01T08:25:16;13.13;;;5.70;;
2850;SDS011;1433;49.976;8.342;2023-02-01T08:27:43;8.20;;;4.10;;
2850;SDS011;1433;49.976;8.342;2023-02-01T08:30:11;23.50;;;6.30;;
2850;SDS011;1433;49.976;8.342;2023-02-01T08:32:38;17.30;;;6.27;;
2850;SDS011;1433;49.976;8.342;2023-02-01T08:35:04;12.37;;;4.60;;
2850;SDS011;1433;49.976;8.342;2023-02-01T08:37:31;10.80;;;5.07;;
2850;SDS011;1433;49.976;8.342;2023-02-01T08:40:03;11.20;;;4.87;;
2850;SDS011;1433;49.976;8.342;2023-02-01T08:42:33;10.70;;;4.20;;
2850;SDS011;1433;49.976;8.342;2023-02-01T08:45:26;14.13;;;6.27;;
2850;SDS011;1433;49.976;8.342;2023-02-01T08:47:57;10.43;;;4.10;;
2850;SDS011;1433;49.976;8.342;2023-02-01T08:50:24;15.73;;;5.03;;
2850;SDS011;1433;49.976;8.342;2023-02-01T08:52:52;18.80;;;5.33;;
2850;SDS011;1433;49.976;8.342;2023-02-01T08:55:19;10.17;;;4.90;;
2850;SDS011;1433;49.976;8.342;2023-02-01T08:57:45;8.87;;;4.60;;
2850;SDS011;1433;49.976;8.342;2023-02-01T09:00:13;6.40;;;3.53;;
2850;SDS011;1433;49.976;8.342;2023-02-01T09:02:42;17.20;;;4.87;;
2850;SDS011;1433;49.976;8.342;2023-02-01T09:05:09;6.43;;;4.00;;
2850;SDS011;1433;49.976;8.342;2023-02-01T09:07:36;20.17;;;5.23;;
2850;SDS011;1433;49.976;8.342;2023-02-01T09:10:03;8.23;;;3.90;;
2850;SDS011;1433;49.976;8.342;2023-02-01T09:12:31;8.90;;;5.23;;
2850;SDS011;1433;49.976;8.342;2023-02-01T09:15:00;11.10;;;4.67;;
2850;SDS011;1433;49.976;8.342;2023-02-01T09:17:26;9.10;;;4.80;;
2850;SDS011;1433;49.976;8.342;2023-02-01T09:19:55;5.73;;;4.00;;
2850;SDS011;1433;49.976;8.342;2023-02-01T09:22:21;7.97;;;4.00;;
2850;SDS011;1433;49.976;8.342;2023-02-01T09:24:48;10.00;;;3.90;;
2850;SDS011;1433;49.976;8.342;2023-02-01T09:27:14;9.90;;;3.50;;
2850;SDS011;1433;49.976;8.342;2023-02-01T09:29:40;10.10;;;4.57;;
2850;SDS011;1433;49.976;8.342;2023-02-01T09:32:07;8.83;;;3.93;;
2850;SDS011;1433;49.976;8.342;2023-02-01T09:34:33;7.10;;;3.70;;
2850;SDS011;1433;49.976;8.342;2023-02-01T09:37:00;9.40;;;4.70;;
2850;SDS011;1433;49.976;8.342;2023-02-01T09:39:26;9.80;;;3.50;;
2850;SDS011;1433;49.976;8.342;2023-02-01T09:44:34;15.30;;;4.10;;
2850;SDS011;1433;49.976;8.342;2023-02-01T09:47:18;8.60;;;3.73;;
2850;SDS011;1433;49.976;8.342;2023-02-01T09:52:31;14.03;;;4.50;;
2850;SDS011;1433;49.976;8.342;2023-02-01T09:55:13;11.60;;;3.60;;
2850;SDS011;1433;49.976;8.342;2023-02-01T09:58:07;9.37;;;4.37;;
2850;SDS011;1433;49.976;8.342;2023-02-01T10:00:44;12.93;;;4.17;;
2850;SDS011;1433;49.976;8.342;2023-02-01T10:03:19;10.93;;;4.23;;
2850;SDS011;1433;49.976;8.342;2023-02-01T10:17:52;11.73;;;4.60;;
2850;SDS011;1433;49.976;8.342;2023-02-01T10:29:01;8.73;;;4.40;;
2850;SDS011;1433;49.976;8.342;2023-02-01T10:31:25;12.90;;;4.90;;
2850;SDS011;1433;49.976;8.342;2023-02-01T10:33:56;9.10;;;4.00;;
2850;SDS011;1433;49.976;8.342;2023-02-01T10:36:29;16.17;;;4.47;;
2850;SDS011;1433;49.976;8.342;2023-02-01T10:39:02;9.70;;;3.70;;
2850;SDS011;1433;49.976;8.342;2023-02-01T10:41:31;11.70;;;4.10;;
2850;SDS011;1433;49.976;8.342;2023-02-01T10:44:13;10.10;;;4.03;;
2850;SDS011;1433;49.976;8.342;2023-02-01T10:46:45;9.60;;;4.13;;
2850;SDS011;1433;49.976;8.342;2023-02-01T10:49:13;8.93;;;4.10;;
2850;SDS011;1433;49.976;8.342;2023-02-01T10:51:55;8.83;;;4.27;;
2850;SDS011;1433;49.976;8.342;2023-02-01T10:54:34;11.97;;;3.77;;
2850;SDS011;1433;49.976;8.342;2023-02-01T10:57:10;14.33;;;4.37;;
2850;SDS011;1433;49.976;8.342;2023-02-01T10:59:52;11.10;;;4.20;;
2850;SDS011;1433;49.976;8.342;2023-02-01T11:02:25;5.27;;;4.30;;
2850;SDS011;1433;49.976;8.342;2023-02-01T11:05:00;12.50;;;3.77;;
2850;SDS011;1433;49.976;8.342;2023-02-01T11:07:30;6.80;;;3.97;;
2850;SDS011;1433;49.976;8.342;2023-02-01T11:09:57;8.77;;;5.40;;
2850;SDS011;1433;49.976;8.342;2023-02-01T11:12:33;7.33;;;3.97;;
2850;SDS011;1433;49.976;8.342;2023-02-01T11:15:18;5.43;;;4.40;;
2850;SDS011;1433;49.976;8.342;2023-02-01T11:17:50;12.87;;;5.37;;
2850;SDS011;1433;49.976;8.342;2023-02-01T11:20:19;6.93;;;3.77;;
2850;SDS011;1433;49.976;8.342;2023-02-01T11:22:59;13.00;;;4.80;;
2850;SDS011;1433;49.976;8.342;2023-02-01T11:25:27;12.23;;;5.27;;
2850;SDS011;1433;49.976;8.342;2023-02-01T11:27:56;9.10;;;4.40;;
2850;SDS011;1433;49.976;8.342;2023-02-01T11:30:31;12.53;;;4.77;;
2850;SDS011;1433;49.976;8.342;2023-02-01T11:33:09;7.47;;;4.20;;
2850;SDS011;1433;49.976;8.342;2023-02-01T11:35:41;10.97;;;4.57;;
2850;SDS011;1433;49.976;8.342;2023-02-01T11:38:28;12.13;;;5.10;;
2850;SDS011;1433;49.976;8.342;2023-02-01T11:41:10;7.80;;;4.00;;
2850;SDS011;1433;49.976;8.342;2023-02-01T11:46:30;16.80;;;5.03;;
2850;SDS011;1433;49.976;8.342;2023-02-01T11:52:05;5.13;;;3.40;;
2850;SDS011;1433;49.976;8.342;2023-02-01T12:03:11;11.83;;;5.10;;
2850;SDS011;1433;49.976;8.342;2023-02-01T12:05:57;10.20;;;4.13;;
2850;SDS011;1433;49.976;8.342;2023-02-01T12:08:33;12.23;;;5.10;;
2850;SDS011;1433;49.976;8.342;2023-02-01T12:14:23;9.30;;;4.10;;
2850;SDS011;1433;49.976;8.342;2023-02-01T12:17:01;9.23;;;4.00;;
2850;SDS011;1433;49.976;8.342;2023-02-01T12:19:48;10.43;;;3.93;;
2850;SDS011;1433;49.976;8.342;2023-02-01T12:25:45;11.90;;;4.30;;
2850;SDS011;1433;49.976;8.342;2023-02-01T12:34:57;10.10;;;4.43;;
2850;SDS011;1433;49.976;8.342;2023-02-01T12:43:20;8.53;;;3.97;;
2850;SDS011;1433;49.976;8.342;2023-02-01T12:46:16;18.20;;;4.70;;
2850;SDS011;1433;49.976;8.342;2023-02-01T12:51:46;14.43;;;5.43;;
2850;SDS011;1433;49.976;8.342;2023-02-01T12:56:53;12.87;;;5.97;;
2850;SDS011;1433;49.976;8.342;2023-02-01T12:59:27;8.00;;;4.40;;
2850;SDS011;1433;49.976;8.342;2023-02-01T13:02:19;6.37;;;3.07;;
2850;SDS011;1433;49.976;8.342;2023-02-01T13:05:15;10.83;;;4.63;;
2850;SDS011;1433;49.976;8.342;2023-02-01T13:07:49;11.40;;;3.87;;
2850;SDS011;1433;49.976;8.342;2023-02-01T13:10:42;8.47;;;3.97;;
2850;SDS011;1433;49.976;8.342;2023-02-01T13:16:06;7.43;;;2.63;;
2850;SDS011;1433;49.976;8.342;2023-02-01T13:18:48;9.30;;;4.27;;
2850;SDS011;1433;49.976;8.342;2023-02-01T13:21:21;9.87;;;4.83;;
2850;SDS011;1433;49.976;8.342;2023-02-01T13:23:50;11.13;;;4.00;;
2850;SDS011;1433;49.976;8.342;2023-02-01T13:26:19;8.90;;;4.13;;
2850;SDS011;1433;49.976;8.342;2023-02-01T13:28:50;10.10;;;3.23;;
2850;SDS011;1433;49.976;8.342;2023-02-01T13:40:23;9.70;;;3.57;;
2850;SDS011;1433;49.976;8.342;2023-02-01T13:43:11;11.63;;;4.40;;
2850;SDS011;1433;49.976;8.342;2023-02-01T13:45:46;10.53;;;4.83;;
2850;SDS011;1433;49.976;8.342;2023-02-01T13:48:20;9.17;;;2.83;;
2850;SDS011;1433;49.976;8.342;2023-02-01T13:50:52;9.60;;;4.87;;
2850;SDS011;1433;49.976;8.342;2023-02-01T13:56:02;10.00;;;3.60;;
2850;SDS011;1433;49.976;8.342;2023-02-01T13:58:39;8.70;;;4.00;;
2850;SDS011;1433;49.976;8.342;2023-02-01T14:03:57;8.13;;;3.97;;
2850;SDS011;1433;49.976;8.342;2023-02-01T14:19:26;11.50;;;4.30;;
2850;SDS011;1433;49.976;8.342;2023-02-01T14:24:51;7.37;;;4.30;;
2850;SDS011;1433;49.976;8.342;2023-02-01T14:27:25;8.10;;;3.73;;
2850;SDS011;1433;49.976;8.342;2023-02-01T14:29:56;6.80;;;2.77;;
2850;SDS011;1433;49.976;8.342;2023-02-01T14:32:33;10.33;;;3.60;;
2850;SDS011;1433;49.976;8.342;2023-02-01T14:35:21;11.33;;;3.80;;
2850;SDS011;1433;49.976;8.342;2023-02-01T14:37:50;9.77;;;4.00;;
2850;SDS011;1433;49.976;8.342;2023-02-01T14:40:26;12.67;;;3.97;;
2850;SDS011;1433;49.976;8.342;2023-02-01T14:42:54;7.83;;;3.10;;
2850;SDS011;1433;49.976;8.342;2023-02-01T14:50:37;9.10;;;3.80;;
2850;SDS011;1433;49.976;8.342;2023-02-01T14:58:52;6.43;;;3.27;;
2850;SDS011;1433;49.976;8.342;2023-02-01T15:01:33;7.07;;;3.77;;
2850;SDS011;1433;49.976;8.342;2023-02-01T15:04:10;10.30;;;3.70;;
2850;SDS011;1433;49.976;8.342;2023-02-01T15:06:47;5.93;;;3.17;;
2850;SDS011;1433;49.976;8.342;2023-02-01T15:09:31;12.20;;;3.73;;
2850;SDS011;1433;49.976;8.342;2023-02-01T15:14:47;14.03;;;4.70;;
2850;SDS011;1433;49.976;8.342;2023-02-01T15:17:30;7.47;;;3.50;;
2850;SDS011;1433;49.976;8.342;2023-02-01T15:20:00;6.87;;;3.30;;
2850;SDS011;1433;49.976;8.342;2023-02-01T15:22:57;16.10;;;3.80;;
2850;SDS011;1433;49.976;8.342;2023-02-01T15:25:27;10.20;;;3.97;;
2850;SDS011;1433;49.976;8.342;2023-02-01T15:28:04;6.40;;;3.23;;
2850;SDS011;1433;49.976;8.342;2023-02-01T15:30:34;9.00;;;4.20;;
2850;SDS011;1433;49.976;8.342;2023-02-01T15:33:14;5.13;;;3.40;;
2850;SDS011;1433;49.976;8.342;2023-02-01T15:35:43;9.27;;;3.83;;
2850;SDS011;1433;49.976;8.342;2023-02-01T15:43:40;7.90;;;2.73;;
2850;SDS011;1433;49.976;8.342;2023-02-01T15:46:19;11.27;;;3.30;;
2850;SDS011;1433;49.976;8.342;2023-02-01T15:49:02;6.03;;;3.23;;
2850;SDS011;1433;49.976;8.342;2023-02-01T15:51:30;5.23;;;2.67;;
2850;SDS011;1433;49.976;8.342;2023-02-01T15:53:59;10.07;;;3.20;;
2850;SDS011;1433;49.976;8.342;2023-02-01T15:56:37;9.30;;;2.90;;
2850;SDS011;1433;49.976;8.342;2023-02-01T15:59:13;7.10;;;3.10;;
2850;SDS011;1433;49.976;8.342;2023-02-01T16:01:49;8.30;;;3.40;;
2850;SDS011;1433;49.976;8.342;2023-02-01T16:06:54;10.50;;;3.70;;
2850;SDS011;1433;49.976;8.342;2023-02-01T16:09:37;11.90;;;4.30;;
2850;SDS011;1433;49.976;8.342;2023-02-01T16:15:11;12.77;;;3.00;;
2850;SDS011;1433;49.976;8.342;2023-02-01T16:17:38;8.43;;;3.50;;
2850;SDS011;1433;49.976;8.342;2023-02-01T16:20:05;6.03;;;3.30;;
2850;SDS011;1433;49.976;8.342;2023-02-01T16:22:32;13.20;;;4.10;;
2850;SDS011;1433;49.976;8.342;2023-02-01T16:24:59;8.13;;;3.00;;
2850;SDS011;1433;49.976;8.342;2023-02-01T16:27:25;9.03;;;4.23;;
2850;SDS011;1433;49.976;8.342;2023-02-01T16:29:52;6.97;;;3.47;;
2850;SDS011;1433;49.976;8.342;2023-02-01T16:32:20;5.73;;;3.33;;
2850;SDS011;1433;49.976;8.342;2023-02-01T16:34:48;6.00;;;3.90;;
2850;SDS011;1433;49.976;8.342;2023-02-01T16:37:16;7.00;;;3.17;;
2850;SDS011;1433;49.976;8.342;2023-02-01T16:39:46;6.53;;;4.17;;
2850;SDS011;1433;49.976;8.342;2023-02-01T16:42:13;6.97;;;3.53;;
2850;SDS011;1433;49.976;8.342;2023-02-01T16:44:41;10.83;;;5.33;;
2850;SDS011;1433;49.976;8.342;2023-02-01T16:47:16;9.97;;;4.50;;
2850;SDS011;1433;49.976;8.342;2023-02-01T16:49:44;15.33;;;4.80;;
2850;SDS011;1433;49.976;8.342;2023-02-01T16:52:15;7.40;;;3.87;;
2850;SDS011;1433;49.976;8.342;2023-02-01T16:54:45;9.37;;;3.83;;
2850;SDS011;1433;49.976;8.342;2023-02-01T16:57:15;5.30;;;3.80;;
2850;SDS011;1433;49.976;8.342;2023-02-01T16:59:43;9.93;;;4.37;;
2850;SDS011;1433;49.976;8.342;2023-02-01T17:02:14;8.57;;;4.23;;
2850;SDS011;1433;49.976;8.342;2023-02-01T17:04:47;5.83;;;3.63;;
2850;SDS011;1433;49.976;8.342;2023-02-01T17:07:18;8.13;;;3.87;;
2850;SDS011;1433;49.976;8.342;2023-02-01T17:09:49;11.90;;;4.83;;
2850;SDS011;1433;49.976;8.342;2023-02-01T17:12:21;10.00;;;4.80;;
2850;SDS011;1433;49.976;8.342;2023-02-01T17:14:52;12.73;;;3.77;;
2850;SDS011;1433;49.976;8.342;2023-02-01T17:17:21;7.40;;;3.63;;
2850;SDS011;1433;49.976;8.342;2023-02-01T17:19:49;7.63;;;3.37;;
2850;SDS011;1433;49.976;8.342;2023-02-01T17:22:22;9.23;;;4.40;;
2850;SDS011;1433;49.976;8.342;2023-02-01T17:24:49;12.13;;;4.20;;
2850;SDS011;1433;49.976;8.342;2023-02-01T17:27:19;10.90;;;3.77;;
2850;SDS011;1433;49.976;8.342;2023-02-01T17:29:50;11.13;;;4.23;;
2850;SDS011;1433;49.976;8.342;2023-02-01T17:32:22;8.83;;;5.17;;
2850;SDS011;1433;49.976;8.342;2023-02-01T17:34:52;8.37;;;4.67;;
2850;SDS011;1433;49.976;8.342;2023-02-01T17:37:24;11.83;;;4.87;;
2850;SDS011;1433;49.976;8.342;2023-02-01T17:39:58;10.83;;;3.60;;
2850;SDS011;1433;49.976;8.342;2023-02-01T17:42:27;7.93;;;3.53;;
2850;SDS011;1433;49.976;8.342;2023-02-01T17:44:56;8.30;;;4.50;;
2850;SDS011;1433;49.976;8.342;2023-02-01T17:47:27;12.53;;;3.43;;
2850;SDS011;1433;49.976;8.342;2023-02-01T17:49:53;13.50;;;4.00;;
2850;SDS011;1433;49.976;8.342;2023-02-01T17:52:26;8.80;;;4.30;;
2850;SDS011;1433;49.976;8.342;2023-02-01T17:54:56;7.80;;;3.70;;
2850;SDS011;1433;49.976;8.342;2023-02-01T17:57:22;9.20;;;3.70;;
2850;SDS011;1433;49.976;8.342;2023-02-01T17:59:51;5.60;;;3.13;;
2850;SDS011;1433;49.976;8.342;2023-02-01T18:02:21;16.23;;;5.30;;
2850;SDS011;1433;49.976;8.342;2023-02-01T18:04:50;11.10;;;4.63;;
2850;SDS011;1433;49.976;8.342;2023-02-01T18:07:17;12.97;;;4.73;;
2850;SDS011;1433;49.976;8.342;2023-02-01T18:09:44;10.67;;;4.40;;
2850;SDS011;1433;49.976;8.342;2023-02-01T18:12:33;8.83;;;4.00;;
2850;SDS011;1433;49.976;8.342;2023-02-01T18:14:52;14.83;;;4.93;;
2850;SDS011;1433;49.976;8.342;2023-02-01T18:17:24;8.23;;;4.00;;
2850;SDS011;1433;49.976;8.342;2023-02-01T18:19:52;12.20;;;4.77;;